sensor_id;sensor_type;location;lat;lon;timestamp;P1;durP1;ratioP1;P2;durP2;ratioP2
71696;SDS011;59528;59.082;37.926;2022-10-30T00:00:06;0.70;;;0.53;;
71696;SDS011;59528;59.082;37.926;2022-10-30T00:02:37;2.80;;;0.60;;
71696;SDS011;59528;59.082;37.926;2022-10-30T00:05:02;1.33;;;0.70;;
71696;SDS011;59528;59.082;37.926;2022-10-30T00:07:28;1.00;;;0.60;;
71696;SDS011;59528;59.082;37.926;2022-10-30T00:09:54;0.77;;;0.60;;
71696;SDS011;59528;59.082;37.926;2022-10-30T00:12:19;1.13;;;0.50;;
71696;SDS011;59528;59.082;37.926;2022-10-30T00:14:45;1.87;;;0.70;;
71696;SDS011;59528;59.082;37.926;2022-10-30T00:17:10;1.07;;;0.80;;
71696;SDS011;59528;59.082;37.926;2022-10-30T00:19:36;1.40;;;0.87;;
71696;SDS011;59528;59.082;37.926;2022-10-30T00:22:02;3.60;;;0.90;;
71696;SDS011;59528;59.082;37.926;2022-10-30T00:24:27;1.20;;;0.80;;
71696;SDS011;59528;59.082;37.926;2022-10-30T00:26:53;1.63;;;1.03;;
71696;SDS011;59528;59.082;37.926;2022-10-30T00:29:19;1.57;;;0.83;;
71696;SDS011;59528;59.082;37.926;2022-10-30T00:31:45;2.03;;;0.90;;
71696;SDS011;59528;59.082;37.926;2022-10-30T00:34:11;2.30;;;1.03;;
71696;SDS011;59528;59.082;37.926;2022-10-30T00:36:37;1.90;;;0.73;;
71696;SDS011;59528;59.082;37.926;2022-10-30T00:39:04;0.80;;;0.70;;
71696;SDS011;59528;59.082;37.926;2022-10-30T00:41:30;1.20;;;0.87;;
71696;SDS011;59528;59.082;37.926;2022-10-30T00:43:56;1.30;;;1.00;;
71696;SDS011;59528;59.082;37.926;2022-10-30T00:46:23;1.13;;;0.77;;
71696;SDS011;59528;59.082;37.926;2022-10-30T00:51:49;1.70;;;0.73;;
71696;SDS011;59528;59.082;37.926;2022-10-30T00:54:16;1.20;;;1.00;;
71696;SDS011;59528;59.082;37.926;2022-10-30T00:56:43;1.47;;;0.90;;
71696;SDS011;59528;59.082;37.926;2022-10-30T00:59:10;2.63;;;0.70;;
71696;SDS011;59528;59.082;37.926;2022-10-30T01:01:39;1.10;;;0.80;;
71696;SDS011;59528;59.082;37.926;2022-10-30T01:04:06;1.00;;;0.60;;
71696;SDS011;59528;59.082;37.926;2022-10-30T01:06:34;0.70;;;0.50;;
71696;SDS011;59528;59.082;37.926;2022-10-30T01:09:01;0.80;;;0.60;;
71696;SDS011;59528;59.082;37.926;2022-10-30T01:11:27;0.90;;;0.70;;
71696;SDS011;59528;59.082;37.926;2022-10-30T01:13:53;1.77;;;1.13;;
71696;SDS011;59528;59.082;37.926;2022-10-30T01:18:57;1.50;;;0.60;;
71696;SDS011;59528;59.082;37.926;2022-10-30T01:21:30;1.23;;;0.70;;
71696;SDS011;59528;59.082;37.926;2022-10-30T01:34:58;0.83;;;0.60;;
71696;SDS011;59528;59.082;37.926;2022-10-30T01:37:41;0.60;;;0.40;;
71696;SDS011;59528;59.082;37.926;2022-10-30T01:40:11;0.93;;;0.40;;
71696;SDS011;59528;59.082;37.926;2022-10-30T01:42:41;2.03;;;0.43;;
71696;SDS011;59528;59.082;37.926;2022-10-30T01:45:08;0.47;;;0.20;;
71696;SDS011;59528;59.082;37.926;2022-10-30T01:47:44;0.73;;;0.40;;
71696;SDS011;59528;59.082;37.926;2022-10-30T01:52:41;0.47;;;0.40;;
71696;SDS011;59528;59.082;37.926;2022-10-30T01:57:47;1.40;;;0.20;;
71696;SDS011;59528;59.082;37.926;2022-10-30T02:00:16;0.30;;;0.23;;
71696;SDS011;59528;59.082;37.926;2022-10-30T02:02:46;0.17;;;0.13;;
71696;SDS011;59528;59.082;37.926;2022-10-30T02:05:16;0.10;;;0.10;;
71696;SDS011;59528;59.082;37.926;2022-10-30T02:07:45;1.60;;;0.20;;
71696;SDS011;59528;59.082;37.926;2022-10-30T02:10:11;1.23;;;0.20;;
71696;SDS011;59528;59.082;37.926;2022-10-30T02:12:37;0.20;;;0.17;;
71696;SDS011;59528;59.082;37.926;2022-10-30T02:15:03;0.93;;;0.10;;
71696;SDS011;59528;59.082;37.926;2022-10-30T02:17:29;1.10;;;0.20;;
71696;SDS011;59528;59.082;37.926;2022-10-30T02:19:54;0.40;;;0.20;;
71696;SDS011;59528;59.082;37.926;2022-10-30T02:22:22;1.23;;;0.80;;
71696;SDS011;59528;59.082;37.926;2022-10-30T02:24:49;0.93;;;0.50;;
71696;SDS011;59528;59.082;37.926;2022-10-30T02:27:15;1.83;;;0.73;;
71696;SDS011;59528;59.082;37.926;2022-10-30T02:29:40;1.97;;;0.50;;
71696;SDS011;59528;59.082;37.926;2022-10-30T02:32:06;1.10;;;0.60;;
71696;SDS011;59528;59.082;37.926;2022-10-30T02:34:33;2.20;;;0.30;;
71696;SDS011;59528;59.082;37.926;2022-10-30T02:36:59;0.63;;;0.37;;
71696;SDS011;59528;59.082;37.926;2022-10-30T02:39:26;1.00;;;0.50;;
71696;SDS011;59528;59.082;37.926;2022-10-30T02:41:52;1.50;;;0.50;;
71696;SDS011;59528;59.082;37.926;2022-10-30T02:44:17;1.30;;;0.83;;
71696;SDS011;59528;59.082;37.926;2022-10-30T02:46:46;2.20;;;0.80;;
71696;SDS011;59528;59.082;37.926;2022-10-30T02:49:12;0.83;;;0.50;;
71696;SDS011;59528;59.082;37.926;2022-10-30T02:51:37;1.17;;;0.77;;
71696;SDS011;59528;59.082;37.926;2022-10-30T02:54:03;2.10;;;0.70;;
71696;SDS011;59528;59.082;37.926;2022-10-30T02:56:29;2.30;;;0.73;;
71696;SDS011;59528;59.082;37.926;2022-10-30T02:58:55;2.30;;;0.80;;
71696;SDS011;59528;59.082;37.926;2022-10-30T03:01:21;2.97;;;0.80;;
71696;SDS011;59528;59.082;37.926;2022-10-30T03:03:52;1.90;;;0.70;;
71696;SDS011;59528;59.082;37.926;2022-10-30T03:06:18;1.43;;;0.80;;
71696;SDS011;59528;59.082;37.926;2022-10-30T03:08:44;2.33;;;0.70;;
71696;SDS011;59528;59.082;37.926;2022-10-30T03:11:16;0.90;;;0.50;;
71696;SDS011;59528;59.082;37.926;2022-10-30T03:13:42;1.37;;;0.50;;
71696;SDS011;59528;59.082;37.926;2022-10-30T03:16:10;0.93;;;0.40;;
71696;SDS011;59528;59.082;37.926;2022-10-30T03:18:36;0.80;;;0.50;;
71696;SDS011;59528;59.082;37.926;2022-10-30T03:21:07;0.50;;;0.30;;
71696;SDS011;59528;59.082;37.926;2022-10-30T03:23:34;1.23;;;0.43;;
71696;SDS011;59528;59.082;37.926;2022-10-30T03:26:00;1.27;;;0.50;;
71696;SDS011;59528;59.082;37.926;2022-10-30T03:28:28;2.33;;;0.80;;
71696;SDS011;59528;59.082;37.926;2022-10-30T03:31:00;1.67;;;0.53;;
71696;SDS011;59528;59.082;37.926;2022-10-30T03:33:26;0.57;;;0.47;;
71696;SDS011;59528;59.082;37.926;2022-10-30T03:35:53;0.90;;;0.40;;
71696;SDS011;59528;59.082;37.926;2022-10-30T03:38:18;0.30;;;0.20;;
71696;SDS011;59528;59.082;37.926;2022-10-30T03:40:44;0.20;;;0.20;;
71696;SDS011;59528;59.082;37.926;2022-10-30T03:43:10;0.60;;;0.60;;
71696;SDS011;59528;59.082;37.926;2022-10-30T03:45:35;1.10;;;0.30;;
71696;SDS011;59528;59.082;37.926;2022-10-30T03:48:04;0.23;;;0.20;;
71696;SDS011;59528;59.082;37.926;2022-10-30T03:50:30;3.17;;;0.40;;
71696;SDS011;59528;59.082;37.926;2022-10-30T03:52:57;0.40;;;0.20;;
71696;SDS011;59528;59.082;37.926;2022-10-30T03:55:23;1.13;;;0.30;;
71696;SDS011;59528;59.082;37.926;2022-10-30T03:57:50;0.60;;;0.20;;
71696;SDS011;59528;59.082;37.926;2022-10-30T04:00:16;0.77;;;0.40;;
71696;SDS011;59528;59.082;37.926;2022-10-30T04:02:54;0.77;;;0.23;;
71696;SDS011;59528;59.082;37.926;2022-10-30T04:05:22;0.10;;;0.10;;
71696;SDS011;59528;59.082;37.926;2022-10-30T04:07:54;1.50;;;0.20;;
71696;SDS011;59528;59.082;37.926;2022-10-30T04:10:20;0.20;;;0.10;;
71696;SDS011;59528;59.082;37.926;2022-10-30T04:12:46;0.30;;;0.20;;
71696;SDS011;59528;59.082;37.926;2022-10-30T04:15:11;0.40;;;0.20;;
71696;SDS011;59528;59.082;37.926;2022-10-30T04:17:37;0.17;;;0.10;;
71696;SDS011;59528;59.082;37.926;2022-10-30T04:20:03;0.20;;;0.20;;
71696;SDS011;59528;59.082;37.926;2022-10-30T04:22:30;0.47;;;0.20;;
71696;SDS011;59528;59.082;37.926;2022-10-30T04:24:57;0.40;;;0.20;;
71696;SDS011;59528;59.082;37.926;2022-10-30T04:27:22;1.43;;;0.20;;
71696;SDS011;59528;59.082;37.926;2022-10-30T04:29:48;0.70;;;0.30;;
71696;SDS011;59528;59.082;37.926;2022-10-30T04:32:13;0.30;;;0.20;;
71696;SDS011;59528;59.082;37.926;2022-10-30T04:34:40;1.30;;;0.30;;
71696;SDS011;59528;59.082;37.926;2022-10-30T04:37:06;0.50;;;0.40;;
71696;SDS011;59528;59.082;37.926;2022-10-30T04:39:31;1.27;;;0.30;;
71696;SDS011;59528;59.082;37.926;2022-10-30T04:42:08;2.37;;;0.30;;
71696;SDS011;59528;59.082;37.926;2022-10-30T04:44:33;1.07;;;0.33;;
71696;SDS011;59528;59.082;37.926;2022-10-30T04:46:59;0.53;;;0.30;;
71696;SDS011;59528;59.082;37.926;2022-10-30T04:49:24;1.17;;;0.47;;
71696;SDS011;59528;59.082;37.926;2022-10-30T04:51:50;0.97;;;0.23;;
71696;SDS011;59528;59.082;37.926;2022-10-30T04:54:16;0.20;;;0.10;;
71696;SDS011;59528;59.082;37.926;2022-10-30T04:56:42;1.80;;;0.20;;
71696;SDS011;59528;59.082;37.926;2022-10-30T04:59:08;0.83;;;0.30;;
71696;SDS011;59528;59.082;37.926;2022-10-30T05:01:33;0.23;;;0.10;;
71696;SDS011;59528;59.082;37.926;2022-10-30T05:04:00;0.13;;;0.10;;
71696;SDS011;59528;59.082;37.926;2022-10-30T05:06:29;0.60;;;0.10;;
71696;SDS011;59528;59.082;37.926;2022-10-30T05:08:56;0.80;;;0.20;;
71696;SDS011;59528;59.082;37.926;2022-10-30T05:11:32;0.20;;;0.10;;
71696;SDS011;59528;59.082;37.926;2022-10-30T05:13:59;0.00;;;0.00;;
71696;SDS011;59528;59.082;37.926;2022-10-30T05:16:24;0.10;;;0.10;;
71696;SDS011;59528;59.082;37.926;2022-10-30T05:18:51;0.10;;;0.00;;
71696;SDS011;59528;59.082;37.926;2022-10-30T05:21:16;0.03;;;0.00;;
71696;SDS011;59528;59.082;37.926;2022-10-30T05:23:42;2.67;;;0.10;;
71696;SDS011;59528;59.082;37.926;2022-10-30T05:26:08;0.33;;;0.00;;
71696;SDS011;59528;59.082;37.926;2022-10-30T05:28:34;0.10;;;0.10;;
71696;SDS011;59528;59.082;37.926;2022-10-30T05:30:59;1.33;;;0.10;;
71696;SDS011;59528;59.082;37.926;2022-10-30T05:33:43;0.63;;;0.20;;
71696;SDS011;59528;59.082;37.926;2022-10-30T05:36:09;0.67;;;0.20;;
71696;SDS011;59528;59.082;37.926;2022-10-30T05:38:35;0.30;;;0.10;;
71696;SDS011;59528;59.082;37.926;2022-10-30T05:41:01;0.10;;;0.10;;
71696;SDS011;59528;59.082;37.926;2022-10-30T05:43:27;0.10;;;0.00;;
71696;SDS011;59528;59.082;37.926;2022-10-30T05:45:55;0.50;;;0.10;;
71696;SDS011;59528;59.082;37.926;2022-10-30T05:48:21;0.43;;;0.30;;
71696;SDS011;59528;59.082;37.926;2022-10-30T05:50:47;0.20;;;0.17;;
71696;SDS011;59528;59.082;37.926;2022-10-30T05:53:23;0.10;;;0.10;;
71696;SDS011;59528;59.082;37.926;2022-10-30T05:55:48;0.50;;;0.23;;
71696;SDS011;59528;59.082;37.926;2022-10-30T05:58:19;0.30;;;0.20;;
71696;SDS011;59528;59.082;37.926;2022-10-30T06:00:45;0.43;;;0.23;;
71696;SDS011;59528;59.082;37.926;2022-10-30T06:03:15;0.63;;;0.30;;
71696;SDS011;59528;59.082;37.926;2022-10-30T06:05:42;0.70;;;0.30;;
71696;SDS011;59528;59.082;37.926;2022-10-30T06:08:08;0.83;;;0.57;;
71696;SDS011;59528;59.082;37.926;2022-10-30T06:10:34;0.30;;;0.17;;
71696;SDS011;59528;59.082;37.926;2022-10-30T06:13:12;0.20;;;0.10;;
71696;SDS011;59528;59.082;37.926;2022-10-30T06:16:07;0.30;;;0.20;;
71696;SDS011;59528;59.082;37.926;2022-10-30T06:18:54;0.00;;;0.00;;
71696;SDS011;59528;59.082;37.926;2022-10-30T06:21:20;1.23;;;0.10;;
71696;SDS011;59528;59.082;37.926;2022-10-30T06:23:53;0.00;;;0.00;;
71696;SDS011;59528;59.082;37.926;2022-10-30T06:26:39;0.03;;;0.00;;
71696;SDS011;59528;59.082;37.926;2022-10-30T06:29:09;0.10;;;0.10;;
71696;SDS011;59528;59.082;37.926;2022-10-30T06:31:34;0.10;;;0.10;;
71696;SDS011;59528;59.082;37.926;2022-10-30T06:34:00;0.47;;;0.10;;
71696;SDS011;59528;59.082;37.926;2022-10-30T06:36:26;1.13;;;0.00;;
71696;SDS011;59528;59.082;37.926;2022-10-30T06:38:52;0.30;;;0.10;;
71696;SDS011;59528;59.082;37.926;2022-10-30T06:41:22;0.00;;;0.00;;
71696;SDS011;59528;59.082;37.926;2022-10-30T06:44:06;0.10;;;0.00;;
71696;SDS011;59528;59.082;37.926;2022-10-30T06:46:34;0.10;;;0.10;;
71696;SDS011;59528;59.082;37.926;2022-10-30T06:49:01;0.10;;;0.10;;
71696;SDS011;59528;59.082;37.926;2022-10-30T06:51:27;0.50;;;0.20;;
71696;SDS011;59528;59.082;37.926;2022-10-30T06:53:53;0.10;;;0.00;;
71696;SDS011;59528;59.082;37.926;2022-10-30T06:56:36;0.00;;;0.00;;
71696;SDS011;59528;59.082;37.926;2022-10-30T06:59:07;0.17;;;0.10;;
71696;SDS011;59528;59.082;37.926;2022-10-30T07:01:53;0.10;;;0.10;;
71696;SDS011;59528;59.082;37.926;2022-10-30T07:04:22;0.20;;;0.00;;
71696;SDS011;59528;59.082;37.926;2022-10-30T07:06:48;0.00;;;0.00;;
71696;SDS011;59528;59.082;37.926;2022-10-30T07:09:19;0.53;;;0.10;;
71696;SDS011;59528;59.082;37.926;2022-10-30T07:11:44;0.20;;;0.10;;
71696;SDS011;59528;59.082;37.926;2022-10-30T07:14:28;0.10;;;0.00;;
71696;SDS011;59528;59.082;37.926;2022-10-30T07:17:08;0.93;;;0.00;;
71696;SDS011;59528;59.082;37.926;2022-10-30T07:19:33;0.33;;;0.20;;
71696;SDS011;59528;59.082;37.926;2022-10-30T07:21:59;0.00;;;0.00;;
71696;SDS011;59528;59.082;37.926;2022-10-30T07:24:26;1.40;;;0.00;;
71696;SDS011;59528;59.082;37.926;2022-10-30T07:27:15;0.77;;;0.00;;
71696;SDS011;59528;59.082;37.926;2022-10-30T07:29:48;0.17;;;0.00;;
71696;SDS011;59528;59.082;37.926;2022-10-30T07:32:23;0.00;;;0.00;;
71696;SDS011;59528;59.082;37.926;2022-10-30T07:34:57;0.27;;;0.10;;
71696;SDS011;59528;59.082;37.926;2022-10-30T07:37:45;0.50;;;0.10;;
71696;SDS011;59528;59.082;37.926;2022-10-30T07:40:13;0.20;;;0.00;;
71696;SDS011;59528;59.082;37.926;2022-10-30T07:42:45;0.20;;;0.00;;
71696;SDS011;59528;59.082;37.926;2022-10-30T07:45:25;0.10;;;0.10;;
71696;SDS011;59528;59.082;37.926;2022-10-30T07:48:14;0.00;;;0.00;;
71696;SDS011;59528;59.082;37.926;2022-10-30T07:50:44;0.10;;;0.00;;
71696;SDS011;59528;59.082;37.926;2022-10-30T07:53:10;0.00;;;0.00;;
71696;SDS011;59528;59.082;37.926;2022-10-30T07:55:35;0.67;;;0.00;;
71696;SDS011;59528;59.082;37.926;2022-10-30T07:58:13;0.00;;;0.00;;
71696;SDS011;59528;59.082;37.926;2022-10-30T08:01:08;0.13;;;0.10;;
71696;SDS011;59528;59.082;37.926;2022-10-30T08:03:34;0.07;;;0.00;;
71696;SDS011;59528;59.082;37.926;2022-10-30T08:06:04;0.50;;;0.10;;
71696;SDS011;59528;59.082;37.926;2022-10-30T08:08:34;0.20;;;0.00;;
71696;SDS011;59528;59.082;37.926;2022-10-30T08:11:20;0.23;;;0.10;;
71696;SDS011;59528;59.082;37.926;2022-10-30T08:13:45;0.10;;;0.10;;
71696;SDS011;59528;59.082;37.926;2022-10-30T08:16:11;0.10;;;0.10;;
71696;SDS011;59528;59.082;37.926;2022-10-30T08:18:37;1.50;;;0.10;;
71696;SDS011;59528;59.082;37.926;2022-10-30T08:21:05;0.00;;;0.00;;
71696;SDS011;59528;59.082;37.926;2022-10-30T08:23:31;0.10;;;0.00;;
71696;SDS011;59528;59.082;37.926;2022-10-30T08:26:03;0.30;;;0.10;;
71696;SDS011;59528;59.082;37.926;2022-10-30T08:28:32;0.70;;;0.13;;
71696;SDS011;59528;59.082;37.926;2022-10-30T08:30:57;0.30;;;0.10;;
71696;SDS011;59528;59.082;37.926;2022-10-30T08:33:43;0.30;;;0.20;;
71696;SDS011;59528;59.082;37.926;2022-10-30T08:36:24;0.10;;;0.00;;
71696;SDS011;59528;59.082;37.926;2022-10-30T08:38:50;0.00;;;0.00;;
71696;SDS011;59528;59.082;37.926;2022-10-30T08:41:26;0.00;;;0.00;;
71696;SDS011;59528;59.082;37.926;2022-10-30T08:43:52;0.57;;;0.23;;
71696;SDS011;59528;59.082;37.926;2022-10-30T08:46:17;1.47;;;0.90;;
71696;SDS011;59528;59.082;37.926;2022-10-30T08:48:43;4.70;;;1.20;;
71696;SDS011;59528;59.082;37.926;2022-10-30T08:51:08;4.87;;;2.13;;
71696;SDS011;59528;59.082;37.926;2022-10-30T08:53:41;6.57;;;2.63;;
71696;SDS011;59528;59.082;37.926;2022-10-30T08:56:11;4.33;;;2.33;;
71696;SDS011;59528;59.082;37.926;2022-10-30T08:58:54;5.53;;;2.13;;
71696;SDS011;59528;59.082;37.926;2022-10-30T09:01:20;9.23;;;2.40;;
71696;SDS011;59528;59.082;37.926;2022-10-30T09:04:04;7.13;;;1.70;;
71696;SDS011;59528;59.082;37.926;2022-10-30T09:06:49;4.57;;;1.30;;
71696;SDS011;59528;59.082;37.926;2022-10-30T09:09:48;4.40;;;1.03;;
71696;SDS011;59528;59.082;37.926;2022-10-30T09:12:15;1.03;;;0.70;;
71696;SDS011;59528;59.082;37.926;2022-10-30T09:14:43;3.00;;;1.00;;
71696;SDS011;59528;59.082;37.926;2022-10-30T09:17:10;3.00;;;0.47;;
71696;SDS011;59528;59.082;37.926;2022-10-30T09:19:36;1.90;;;0.30;;
71696;SDS011;59528;59.082;37.926;2022-10-30T09:22:03;0.50;;;0.20;;
71696;SDS011;59528;59.082;37.926;2022-10-30T09:24:30;0.20;;;0.20;;
71696;SDS011;59528;59.082;37.926;2022-10-30T09:27:01;0.30;;;0.20;;
71696;SDS011;59528;59.082;37.926;2022-10-30T09:29:27;0.20;;;0.20;;
71696;SDS011;59528;59.082;37.926;2022-10-30T09:32:17;0.83;;;0.20;;
71696;SDS011;59528;59.082;37.926;2022-10-30T09:35:04;0.30;;;0.20;;
71696;SDS011;59528;59.082;37.926;2022-10-30T09:37:35;0.60;;;0.20;;
71696;SDS011;59528;59.082;37.926;2022-10-30T09:40:04;0.67;;;0.30;;
71696;SDS011;59528;59.082;37.926;2022-10-30T09:52:29;0.77;;;0.30;;
71696;SDS011;59528;59.082;37.926;2022-10-30T10:00:07;0.47;;;0.23;;
71696;SDS011;59528;59.082;37.926;2022-10-30T10:11:17;0.90;;;0.40;;
71696;SDS011;59528;59.082;37.926;2022-10-30T10:13:49;1.47;;;0.40;;
71696;SDS011;59528;59.082;37.926;2022-10-30T10:16:16;1.10;;;0.40;;
71696;SDS011;59528;59.082;37.926;2022-10-30T10:21:30;1.60;;;0.50;;
71696;SDS011;59528;59.082;37.926;2022-10-30T10:24:00;2.23;;;0.67;;
71696;SDS011;59528;59.082;37.926;2022-10-30T10:39:48;2.23;;;0.60;;
71696;SDS011;59528;59.082;37.926;2022-10-30T10:42:28;1.20;;;0.47;;
71696;SDS011;59528;59.082;37.926;2022-10-30T10:50:20;0.77;;;0.30;;
71696;SDS011;59528;59.082;37.926;2022-10-30T10:52:51;0.80;;;0.20;;
71696;SDS011;59528;59.082;37.926;2022-10-30T10:55:19;0.20;;;0.20;;
71696;SDS011;59528;59.082;37.926;2022-10-30T10:57:46;1.50;;;0.30;;
71696;SDS011;59528;59.082;37.926;2022-10-30T11:00:19;0.30;;;0.20;;
71696;SDS011;59528;59.082;37.926;2022-10-30T11:03:00;0.50;;;0.20;;
71696;SDS011;59528;59.082;37.926;2022-10-30T11:05:31;0.23;;;0.20;;
71696;SDS011;59528;59.082;37.926;2022-10-30T11:08:08;3.43;;;0.50;;
71696;SDS011;59528;59.082;37.926;2022-10-30T11:10:35;5.93;;;0.90;;
71696;SDS011;59528;59.082;37.926;2022-10-30T11:13:01;2.10;;;0.63;;
71696;SDS011;59528;59.082;37.926;2022-10-30T11:15:35;2.50;;;0.60;;
71696;SDS011;59528;59.082;37.926;2022-10-30T11:18:04;2.03;;;0.50;;
71696;SDS011;59528;59.082;37.926;2022-10-30T11:20:32;0.57;;;0.37;;
71696;SDS011;59528;59.082;37.926;2022-10-30T11:23:00;0.93;;;0.30;;
71696;SDS011;59528;59.082;37.926;2022-10-30T11:25:31;0.30;;;0.20;;
71696;SDS011;59528;59.082;37.926;2022-10-30T11:27:59;0.30;;;0.20;;
71696;SDS011;59528;59.082;37.926;2022-10-30T11:30:25;0.27;;;0.17;;
71696;SDS011;59528;59.082;37.926;2022-10-30T11:32:56;0.37;;;0.27;;
71696;SDS011;59528;59.082;37.926;2022-10-30T11:35:22;0.47;;;0.20;;
71696;SDS011;59528;59.082;37.926;2022-10-30T11:37:48;0.47;;;0.17;;
71696;SDS011;59528;59.082;37.926;2022-10-30T11:40:16;0.20;;;0.10;;
71696;SDS011;59528;59.082;37.926;2022-10-30T11:42:48;1.73;;;0.20;;
71696;SDS011;59528;59.082;37.926;2022-10-30T11:45:17;0.27;;;0.10;;
71696;SDS011;59528;59.082;37.926;2022-10-30T11:47:44;1.23;;;0.20;;
71696;SDS011;59528;59.082;37.926;2022-10-30T11:50:28;1.60;;;0.20;;
71696;SDS011;59528;59.082;37.926;2022-10-30T11:52:56;1.10;;;0.37;;
71696;SDS011;59528;59.082;37.926;2022-10-30T11:55:26;0.33;;;0.20;;
71696;SDS011;59528;59.082;37.926;2022-10-30T11:57:54;0.50;;;0.20;;
71696;SDS011;59528;59.082;37.926;2022-10-30T12:00:26;0.70;;;0.20;;
71696;SDS011;59528;59.082;37.926;2022-10-30T12:02:53;2.20;;;0.40;;
71696;SDS011;59528;59.082;37.926;2022-10-30T12:07:52;0.30;;;0.20;;
71696;SDS011;59528;59.082;37.926;2022-10-30T12:10:28;0.73;;;0.20;;
71696;SDS011;59528;59.082;37.926;2022-10-30T12:12:54;0.33;;;0.20;;
71696;SDS011;59528;59.082;37.926;2022-10-30T12:15:22;0.30;;;0.23;;
71696;SDS011;59528;59.082;37.926;2022-10-30T12:17:50;1.60;;;0.20;;
71696;SDS011;59528;59.082;37.926;2022-10-30T12:20:15;1.60;;;0.20;;
71696;SDS011;59528;59.082;37.926;2022-10-30T12:22:41;0.50;;;0.30;;
71696;SDS011;59528;59.082;37.926;2022-10-30T12:25:14;0.20;;;0.10;;
71696;SDS011;59528;59.082;37.926;2022-10-30T12:27:42;0.17;;;0.17;;
71696;SDS011;59528;59.082;37.926;2022-10-30T12:30:18;0.40;;;0.20;;
71696;SDS011;59528;59.082;37.926;2022-10-30T12:37:57;1.47;;;0.20;;
71696;SDS011;59528;59.082;37.926;2022-10-30T12:40:29;0.30;;;0.20;;
71696;SDS011;59528;59.082;37.926;2022-10-30T12:43:02;0.37;;;0.10;;
71696;SDS011;59528;59.082;37.926;2022-10-30T12:45:31;0.70;;;0.30;;
71696;SDS011;59528;59.082;37.926;2022-10-30T12:53:01;0.50;;;0.30;;
71696;SDS011;59528;59.082;37.926;2022-10-30T12:55:46;0.90;;;0.20;;
71696;SDS011;59528;59.082;37.926;2022-10-30T13:06:16;0.33;;;0.30;;
71696;SDS011;59528;59.082;37.926;2022-10-30T13:08:56;2.77;;;0.57;;
71696;SDS011;59528;59.082;37.926;2022-10-30T13:14:10;1.30;;;0.50;;
71696;SDS011;59528;59.082;37.926;2022-10-30T13:16:37;0.50;;;0.30;;
71696;SDS011;59528;59.082;37.926;2022-10-30T13:19:04;1.50;;;0.20;;
71696;SDS011;59528;59.082;37.926;2022-10-30T13:21:52;0.13;;;0.10;;
71696;SDS011;59528;59.082;37.926;2022-10-30T13:27:04;0.53;;;0.30;;
71696;SDS011;59528;59.082;37.926;2022-10-30T13:34:50;0.30;;;0.30;;
71696;SDS011;59528;59.082;37.926;2022-10-30T13:40:26;0.50;;;0.30;;
71696;SDS011;59528;59.082;37.926;2022-10-30T13:45:04;0.80;;;0.60;;
71696;SDS011;59528;59.082;37.926;2022-10-30T13:47:41;0.80;;;0.30;;
71696;SDS011;59528;59.082;37.926;2022-10-30T13:52:34;0.70;;;0.50;;
71696;SDS011;59528;59.082;37.926;2022-10-30T13:57:47;1.13;;;0.40;;
71696;SDS011;59528;59.082;37.926;2022-10-30T14:00:18;0.80;;;0.60;;
71696;SDS011;59528;59.082;37.926;2022-10-30T14:03:04;0.60;;;0.30;;
71696;SDS011;59528;59.082;37.926;2022-10-30T14:08:22;0.40;;;0.30;;
71696;SDS011;59528;59.082;37.926;2022-10-30T14:10:55;0.60;;;0.30;;
71696;SDS011;59528;59.082;37.926;2022-10-30T14:13:22;0.67;;;0.40;;
71696;SDS011;59528;59.082;37.926;2022-10-30T14:16:00;0.57;;;0.20;;
71696;SDS011;59528;59.082;37.926;2022-10-30T14:18:27;0.37;;;0.20;;
71696;SDS011;59528;59.082;37.926;2022-10-30T14:20:58;0.80;;;0.40;;
71696;SDS011;59528;59.082;37.926;2022-10-30T14:28:28;1.70;;;0.30;;
71696;SDS011;59528;59.082;37.926;2022-10-30T14:31:04;1.10;;;0.30;;
71696;SDS011;59528;59.082;37.926;2022-10-30T14:33:41;0.20;;;0.10;;
71696;SDS011;59528;59.082;37.926;2022-10-30T14:36:17;0.40;;;0.30;;
71696;SDS011;59528;59.082;37.926;2022-10-30T14:41:34;0.33;;;0.30;;
71696;SDS011;59528;59.082;37.926;2022-10-30T14:51:58;0.50;;;0.20;;
71696;SDS011;59528;59.082;37.926;2022-10-30T14:54:36;0.73;;;0.50;;
71696;SDS011;59528;59.082;37.926;2022-10-30T14:57:03;0.50;;;0.20;;
71696;SDS011;59528;59.082;37.926;2022-10-30T14:59:44;0.50;;;0.20;;
71696;SDS011;59528;59.082;37.926;2022-10-30T15:09:36;0.63;;;0.20;;
71696;SDS011;59528;59.082;37.926;2022-10-30T15:14:37;0.30;;;0.20;;
71696;SDS011;59528;59.082;37.926;2022-10-30T15:17:04;0.50;;;0.30;;
71696;SDS011;59528;59.082;37.926;2022-10-30T15:19:30;1.10;;;0.10;;
71696;SDS011;59528;59.082;37.926;2022-10-30T15:21:57;0.77;;;0.23;;
71696;SDS011;59528;59.082;37.926;2022-10-30T15:24:23;0.33;;;0.10;;
71696;SDS011;59528;59.082;37.926;2022-10-30T15:26:52;0.40;;;0.27;;
71696;SDS011;59528;59.082;37.926;2022-10-30T15:29:18;1.73;;;0.30;;
71696;SDS011;59528;59.082;37.926;2022-10-30T15:31:55;0.40;;;0.20;;
71696;SDS011;59528;59.082;37.926;2022-10-30T15:34:21;0.47;;;0.20;;
71696;SDS011;59528;59.082;37.926;2022-10-30T15:36:47;0.30;;;0.20;;
71696;SDS011;59528;59.082;37.926;2022-10-30T15:39:13;1.80;;;0.30;;
71696;SDS011;59528;59.082;37.926;2022-10-30T15:41:49;0.70;;;0.20;;
71696;SDS011;59528;59.082;37.926;2022-10-30T15:44:17;0.37;;;0.20;;
71696;SDS011;59528;59.082;37.926;2022-10-30T15:46:44;0.40;;;0.20;;
71696;SDS011;59528;59.082;37.926;2022-10-30T15:49:11;0.40;;;0.23;;
71696;SDS011;59528;59.082;37.926;2022-10-30T15:51:39;0.10;;;0.10;;
71696;SDS011;59528;59.082;37.926;2022-10-30T15:54:08;0.33;;;0.03;;
71696;SDS011;59528;59.082;37.926;2022-10-30T15:56:45;0.40;;;0.20;;
71696;SDS011;59528;59.082;37.926;2022-10-30T15:59:21;0.80;;;0.30;;
71696;SDS011;59528;59.082;37.926;2022-10-30T16:01:48;1.43;;;0.10;;
71696;SDS011;59528;59.082;37.926;2022-10-30T16:06:39;0.60;;;0.20;;
71696;SDS011;59528;59.082;37.926;2022-10-30T16:09:12;0.43;;;0.20;;
71696;SDS011;59528;59.082;37.926;2022-10-30T16:11:38;0.60;;;0.30;;
71696;SDS011;59528;59.082;37.926;2022-10-30T16:14:05;0.73;;;0.23;;
71696;SDS011;59528;59.082;37.926;2022-10-30T16:16:31;0.27;;;0.20;;
71696;SDS011;59528;59.082;37.926;2022-10-30T16:18:59;1.50;;;0.30;;
71696;SDS011;59528;59.082;37.926;2022-10-30T16:21:26;0.20;;;0.20;;
71696;SDS011;59528;59.082;37.926;2022-10-30T16:24:00;0.73;;;0.50;;
71696;SDS011;59528;59.082;37.926;2022-10-30T16:28:54;0.83;;;0.20;;
71696;SDS011;59528;59.082;37.926;2022-10-30T16:31:20;1.07;;;0.20;;
71696;SDS011;59528;59.082;37.926;2022-10-30T16:33:46;0.10;;;0.10;;
71696;SDS011;59528;59.082;37.926;2022-10-30T16:36:12;0.23;;;0.20;;
71696;SDS011;59528;59.082;37.926;2022-10-30T16:38:41;1.37;;;0.27;;
71696;SDS011;59528;59.082;37.926;2022-10-30T16:41:08;0.80;;;0.40;;
71696;SDS011;59528;59.082;37.926;2022-10-30T16:43:41;1.60;;;0.60;;
71696;SDS011;59528;59.082;37.926;2022-10-30T16:48:37;0.73;;;0.20;;
71696;SDS011;59528;59.082;37.926;2022-10-30T16:51:11;1.27;;;0.33;;
71696;SDS011;59528;59.082;37.926;2022-10-30T16:53:38;0.70;;;0.27;;
71696;SDS011;59528;59.082;37.926;2022-10-30T16:56:04;0.60;;;0.30;;
71696;SDS011;59528;59.082;37.926;2022-10-30T16:58:38;0.90;;;0.40;;
71696;SDS011;59528;59.082;37.926;2022-10-30T17:01:04;0.90;;;0.30;;
71696;SDS011;59528;59.082;37.926;2022-10-30T17:03:35;1.67;;;0.33;;
71696;SDS011;59528;59.082;37.926;2022-10-30T17:08:46;1.37;;;0.30;;
71696;SDS011;59528;59.082;37.926;2022-10-30T17:11:20;0.37;;;0.20;;
71696;SDS011;59528;59.082;37.926;2022-10-30T17:13:58;0.93;;;0.30;;